createdAt,value
2023-04-18T00:00:15.161Z,99.90
2023-04-18T00:02:44.544Z,99.90
2023-04-18T00:05:13.006Z,99.90
2023-04-18T00:07:40.480Z,99.90
2023-04-18T00:10:08.478Z,99.90
2023-04-18T00:12:36.497Z,99.90
2023-04-18T00:15:05.150Z,99.90
2023-04-18T00:17:35.618Z,99.90
2023-04-18T00:20:07.023Z,99.90
2023-04-18T00:22:35.102Z,99.90
2023-04-18T00:25:02.998Z,99.90
2023-04-18T00:27:31.768Z,99.90
2023-04-18T00:29:59.601Z,99.90
2023-04-18T00:32:27.159Z,99.90
2023-04-18T00:34:54.511Z,99.90
2023-04-18T00:37:21.828Z,99.90
2023-04-18T00:39:53.866Z,99.90
2023-04-18T00:42:22.319Z,99.90
2023-04-18T00:44:49.758Z,99.90
2023-04-18T00:47:17.720Z,99.90
2023-04-18T00:49:46.085Z,99.90
2023-04-18T00:52:14.110Z,99.90
2023-04-18T00:54:41.634Z,99.90
2023-04-18T00:57:09.613Z,99.90
2023-04-18T00:59:37.043Z,99.90
2023-04-18T01:02:04.684Z,99.90
2023-04-18T01:04:32.694Z,99.90
2023-04-18T01:07:02.476Z,99.90
2023-04-18T01:09:30.878Z,99.90
2023-04-18T01:11:58.229Z,99.90
2023-04-18T01:14:25.687Z,99.90
2023-04-18T01:16:53.491Z,99.90
2023-04-18T01:19:21.655Z,99.90
2023-04-18T01:21:49.236Z,99.90
2023-04-18T01:24:18.570Z,99.90
2023-04-18T01:26:49.391Z,99.90
2023-04-18T01:29:16.892Z,99.90
2023-04-18T01:31:44.402Z,99.90
2023-04-18T01:34:12.250Z,99.90
2023-04-18T01:36:41.538Z,99.90
2023-04-18T01:39:13.356Z,99.90
2023-04-18T01:41:42.279Z,99.90
2023-04-18T01:44:10.680Z,99.90
2023-04-18T01:46:38.865Z,99.90
2023-04-18T01:49:06.681Z,99.90
2023-04-18T01:51:34.182Z,99.90
2023-04-18T01:54:01.613Z,99.90
2023-04-18T01:56:29.125Z,99.90
2023-04-18T01:58:58.697Z,99.90
2023-04-18T02:01:26.250Z,99.90
2023-04-18T02:03:53.837Z,99.90
2023-04-18T02:06:21.791Z,99.90
2023-04-18T02:08:49.480Z,99.90
2023-04-18T02:11:17.023Z,99.90
2023-04-18T02:13:44.852Z,99.90
2023-04-18T02:16:13.707Z,99.90
2023-04-18T02:18:44.267Z,99.90
2023-04-18T02:21:11.981Z,99.90
2023-04-18T02:23:39.407Z,99.90
2023-04-18T02:26:06.956Z,99.90
2023-04-18T02:28:34.541Z,99.90
2023-04-18T02:31:05.061Z,99.90
2023-04-18T02:33:35.298Z,99.90
2023-04-18T02:36:03.299Z,99.90
2023-04-18T02:38:31.933Z,99.90
2023-04-18T02:41:00.499Z,99.90
2023-04-18T02:43:27.822Z,99.90
2023-04-18T02:45:56.075Z,99.90
2023-04-18T02:48:24.087Z,99.90
2023-04-18T02:50:51.742Z,99.90
2023-04-18T02:53:19.544Z,99.90
2023-04-18T02:55:53.449Z,99.90
2023-04-18T02:58:27.454Z,99.90
2023-04-18T03:01:33.529Z,99.90
2023-04-18T03:04:08.266Z,99.90
2023-04-18T03:06:43.158Z,99.90
2023-04-18T03:09:10.984Z,99.90
2023-04-18T03:11:44.411Z,99.90
2023-04-18T03:14:12.729Z,99.90
2023-04-18T03:16:47.445Z,99.90
2023-04-18T03:19:19.089Z,99.90
2023-04-18T03:21:46.593Z,99.90
2023-04-18T03:24:14.290Z,99.90
2023-04-18T03:26:46.067Z,99.90
2023-04-18T03:29:13.821Z,99.90
2023-04-18T03:31:44.203Z,99.90
2023-04-18T03:34:12.093Z,99.90
2023-04-18T03:36:40.184Z,99.90
2023-04-18T03:39:07.590Z,99.90
2023-04-18T03:41:35.429Z,99.90
2023-04-18T03:44:03.959Z,99.90
2023-04-18T03:46:35.329Z,99.90
2023-04-18T03:49:03.505Z,99.90
2023-04-18T03:51:43.385Z,99.90
2023-04-18T03:54:10.899Z,99.90
2023-04-18T03:56:38.605Z,99.90
2023-04-18T03:59:06.939Z,99.90
2023-04-18T04:01:34.555Z,99.90
2023-04-18T04:04:03.558Z,99.90
2023-04-18T04:06:32.221Z,99.90
2023-04-18T04:09:01.608Z,99.90
2023-04-18T04:11:30.692Z,99.90
2023-04-18T04:13:58.710Z,99.90
2023-04-18T04:16:32.069Z,99.90
2023-04-18T04:19:00.255Z,99.90
2023-04-18T04:21:34.879Z,99.90
2023-04-18T04:24:03.091Z,99.90
2023-04-18T04:26:35.859Z,99.90
2023-04-18T04:29:13.892Z,99.90
2023-04-18T04:31:43.808Z,99.90
2023-04-18T04:34:11.113Z,99.90
2023-04-18T04:36:39.814Z,99.90
2023-04-18T04:39:08.731Z,99.90
2023-04-18T04:42:07.667Z,99.90
2023-04-18T04:44:44.306Z,99.90
2023-04-18T04:47:11.844Z,99.90
2023-04-18T04:49:40.165Z,99.90
2023-04-18T04:52:07.473Z,99.90
2023-04-18T04:54:35.077Z,99.90
2023-04-18T04:57:04.419Z,99.90
2023-04-18T04:59:31.680Z,99.90
2023-04-18T05:01:59.123Z,99.90
2023-04-18T05:04:26.579Z,99.90
2023-04-18T05:06:54.342Z,99.90
2023-04-18T05:09:21.835Z,99.90
2023-04-18T05:11:52.176Z,99.90
2023-04-18T05:14:20.797Z,99.90
2023-04-18T05:16:48.060Z,99.90
2023-04-18T05:19:15.445Z,99.90
2023-04-18T05:21:42.737Z,99.90
2023-04-18T05:24:10.310Z,99.90
2023-04-18T05:26:37.839Z,99.90
2023-04-18T05:29:05.057Z,99.90
2023-04-18T05:31:32.925Z,99.90
2023-04-18T05:34:00.335Z,99.90
2023-04-18T05:36:27.865Z,99.90
2023-04-18T05:38:55.292Z,99.90
2023-04-18T05:41:23.154Z,99.90
2023-04-18T05:44:01.772Z,99.90
2023-04-18T05:46:33.552Z,99.90
2023-04-18T05:49:01.557Z,99.90
2023-04-18T05:51:29.262Z,99.90
2023-04-18T05:53:56.506Z,99.90
2023-04-18T05:56:23.984Z,99.90
2023-04-18T05:58:51.524Z,99.90
2023-04-18T06:01:18.867Z,99.90
2023-04-18T06:03:46.364Z,99.90
2023-04-18T06:06:14.046Z,99.90
2023-04-18T06:08:41.609Z,99.90
2023-04-18T06:11:09.118Z,99.90
2023-04-18T06:13:37.615Z,99.90
2023-04-18T06:16:05.428Z,99.90
2023-04-18T06:18:33.103Z,99.90
2023-04-18T06:21:00.572Z,99.90
2023-04-18T06:23:27.833Z,99.90
2023-04-18T06:25:55.816Z,99.90
2023-04-18T06:28:23.241Z,99.90
2023-04-18T06:30:50.592Z,99.90
2023-04-18T06:33:18.006Z,99.90
2023-04-18T06:35:45.493Z,99.90
2023-04-18T06:38:12.801Z,99.90
2023-04-18T06:40:40.114Z,99.90
2023-04-18T06:43:07.538Z,99.90
2023-04-18T06:45:35.811Z,99.90
2023-04-18T06:48:04.393Z,99.90
2023-04-18T06:50:31.893Z,99.90
2023-04-18T06:52:59.213Z,99.90
2023-04-18T06:55:26.628Z,99.90
2023-04-18T06:57:54.132Z,99.90
2023-04-18T07:00:21.541Z,99.90
2023-04-18T07:02:49.051Z,99.90
2023-04-18T07:05:16.446Z,99.90
2023-04-18T07:07:43.765Z,99.90
2023-04-18T07:10:11.913Z,99.90
2023-04-18T07:12:39.233Z,99.90
2023-04-18T07:15:07.021Z,99.90
2023-04-18T07:17:34.613Z,99.90
2023-04-18T07:20:01.967Z,99.90
2023-04-18T07:22:31.169Z,99.90
2023-04-18T07:24:58.420Z,99.90
2023-04-18T07:27:26.063Z,99.90
2023-04-18T07:29:53.397Z,99.90
2023-04-18T07:32:20.614Z,99.90
2023-04-18T07:34:48.509Z,99.90
2023-04-18T07:37:17.579Z,99.90
2023-04-18T07:39:44.864Z,99.90
2023-04-18T07:42:12.157Z,99.90
2023-04-18T07:44:39.691Z,99.90
2023-04-18T07:47:11.613Z,99.90
2023-04-18T07:49:39.473Z,99.90
2023-04-18T07:52:07.632Z,99.90
2023-04-18T07:54:35.502Z,99.90
2023-04-18T07:57:02.971Z,99.90
2023-04-18T07:59:32.264Z,99.90
2023-04-18T08:01:59.554Z,99.90
2023-04-18T08:04:29.775Z,99.90
2023-04-18T08:06:57.466Z,99.90
2023-04-18T08:09:25.301Z,99.90
2023-04-18T08:11:55.029Z,99.90
2023-04-18T08:14:22.390Z,99.90
2023-04-18T08:16:49.990Z,99.90
2023-04-18T08:19:17.536Z,99.90
2023-04-18T08:21:44.955Z,99.90
2023-04-18T08:24:12.215Z,99.90
2023-04-18T08:26:39.543Z,99.90
2023-04-18T08:29:07.544Z,99.90
2023-04-18T08:31:34.982Z,99.90
2023-04-18T08:34:04.506Z,99.90
2023-04-18T08:36:32.367Z,99.90
2023-04-18T08:38:59.655Z,99.90
2023-04-18T08:41:28.755Z,99.90
2023-04-18T08:43:57.164Z,99.90
2023-04-18T08:46:24.962Z,99.90
2023-04-18T08:48:52.660Z,99.90
2023-04-18T08:51:19.842Z,99.90
2023-04-18T08:53:48.378Z,99.90
2023-04-18T08:56:16.381Z,99.90
2023-04-18T08:58:45.106Z,99.90
2023-04-18T09:01:13.556Z,99.90
2023-04-18T09:03:43.218Z,99.90
2023-04-18T09:06:16.423Z,99.90
2023-04-18T09:08:54.819Z,99.90
2023-04-18T09:11:26.151Z,99.90
2023-04-18T09:13:55.993Z,99.90
2023-04-18T09:16:23.719Z,99.90
2023-04-18T09:19:11.229Z,99.90
2023-04-18T09:21:40.874Z,99.90
2023-04-18T09:24:24.829Z,99.90
2023-04-18T09:26:56.072Z,99.90
2023-04-18T09:29:42.697Z,99.90
2023-04-18T09:32:10.492Z,99.90
2023-04-18T09:34:42.964Z,99.90
2023-04-18T09:37:12.360Z,99.90
2023-04-18T09:39:43.225Z,99.90
2023-04-18T09:42:11.511Z,99.90
2023-04-18T09:44:57.552Z,99.90
2023-04-18T09:47:24.904Z,99.90
2023-04-18T09:49:52.856Z,99.90
2023-04-18T09:52:21.278Z,99.90
2023-04-18T09:54:55.158Z,99.90
2023-04-18T09:57:26.566Z,99.90
2023-04-18T10:00:03.872Z,99.90
2023-04-18T10:02:41.154Z,99.90
2023-04-18T10:05:09.150Z,99.90
2023-04-18T10:07:37.035Z,99.90
2023-04-18T10:10:04.806Z,99.90
2023-04-18T10:12:33.286Z,99.90
2023-04-18T10:15:01.347Z,99.90
2023-04-18T10:17:29.610Z,99.90
2023-04-18T10:20:08.477Z,99.90
2023-04-18T10:22:35.962Z,99.90
2023-04-18T10:25:03.644Z,99.90
2023-04-18T10:27:49.346Z,99.90
2023-04-18T10:30:18.139Z,99.90
2023-04-18T10:32:49.015Z,99.90
2023-04-18T10:35:16.283Z,99.90
2023-04-18T10:37:51.122Z,99.90
2023-04-18T10:40:34.870Z,99.90
2023-04-18T10:43:02.506Z,99.90
2023-04-18T10:45:36.362Z,99.90
2023-04-18T10:48:24.157Z,99.90
2023-04-18T10:51:17.722Z,99.90
2023-04-18T10:53:57.707Z,99.90
2023-04-18T10:56:26.224Z,99.90
2023-04-18T10:58:54.056Z,99.90
2023-04-18T11:01:33.146Z,99.90
2023-04-18T11:04:01.383Z,99.90
2023-04-18T11:06:30.528Z,99.90
2023-04-18T11:09:14.164Z,99.90
2023-04-18T11:11:41.864Z,99.90
2023-04-18T11:14:09.247Z,99.90
2023-04-18T11:16:36.890Z,99.90
2023-04-18T11:19:26.598Z,99.90
2023-04-18T11:22:01.174Z,99.90
2023-04-18T11:24:29.773Z,99.90
2023-04-18T11:26:57.045Z,99.90
2023-04-18T11:29:24.438Z,99.90
2023-04-18T11:31:56.693Z,99.90
2023-04-18T11:34:31.796Z,99.90
2023-04-18T11:36:59.224Z,99.90
2023-04-18T11:39:26.536Z,99.90
2023-04-18T11:41:56.477Z,99.90
2023-04-18T11:44:25.184Z,99.90
2023-04-18T11:46:55.494Z,99.90
2023-04-18T11:49:30.427Z,99.90
2023-04-18T11:51:58.026Z,99.90
2023-04-18T11:54:42.601Z,99.90
2023-04-18T11:57:26.740Z,99.90
2023-04-18T11:59:56.793Z,99.90
2023-04-18T12:02:40.221Z,99.90
2023-04-18T12:05:08.236Z,99.90
2023-04-18T12:07:39.512Z,99.90
2023-04-18T12:10:23.530Z,99.90
2023-04-18T12:12:52.916Z,99.90
2023-04-18T12:15:21.851Z,99.90
2023-04-18T12:17:51.943Z,99.90
2023-04-18T12:20:20.204Z,99.90
2023-04-18T12:22:49.686Z,99.90
2023-04-18T12:25:27.427Z,99.90
2023-04-18T12:28:02.344Z,99.90
2023-04-18T12:30:32.179Z,99.90
2023-04-18T12:33:01.827Z,99.90
2023-04-18T12:35:31.608Z,99.90
2023-04-18T12:38:00.661Z,99.90
2023-04-18T12:40:28.953Z,99.90
2023-04-18T12:42:56.794Z,99.90
2023-04-18T12:45:24.665Z,99.90
2023-04-18T12:47:53.019Z,99.90
2023-04-18T12:50:24.981Z,99.90
2023-04-18T12:52:55.144Z,99.90
2023-04-18T12:55:25.948Z,99.70
2023-04-18T12:57:58.067Z,99.30
2023-04-18T13:00:31.268Z,99.20
2023-04-18T13:02:59.447Z,99.20
2023-04-18T13:05:31.598Z,99.30
2023-04-18T13:08:12.794Z,98.60
2023-04-18T13:10:44.418Z,97.60
2023-04-18T13:13:11.889Z,96.60
2023-04-18T13:15:39.278Z,96.50
2023-04-18T13:18:06.984Z,95.60
2023-04-18T13:20:35.066Z,94.60
2023-04-18T13:23:03.295Z,92.10
2023-04-18T13:25:30.830Z,91.80
2023-04-18T13:27:58.742Z,90.90
2023-04-18T13:30:26.219Z,88.60
2023-04-18T13:32:55.064Z,85.60
2023-04-18T13:35:22.442Z,79.70
2023-04-18T13:37:49.898Z,76.80
2023-04-18T13:40:17.253Z,78.60
2023-04-18T13:42:45.808Z,81.50
2023-04-18T13:45:13.948Z,85.00
2023-04-18T13:47:41.299Z,88.80
2023-04-18T13:50:09.373Z,90.00
2023-04-18T13:52:36.628Z,91.30
2023-04-18T13:55:04.213Z,92.10
2023-04-18T13:57:33.636Z,92.60
2023-04-18T14:00:01.337Z,93.30
2023-04-18T14:02:41.752Z,93.80
2023-04-18T14:05:09.562Z,94.10
2023-04-18T14:07:38.453Z,94.50
2023-04-18T14:10:06.817Z,95.40
2023-04-18T14:12:34.951Z,95.50
2023-04-18T14:15:02.368Z,95.60
2023-04-18T14:17:32.770Z,95.90
2023-04-18T14:20:01.565Z,96.20
2023-04-18T14:22:31.202Z,96.60
2023-04-18T14:24:58.959Z,97.00
2023-04-18T14:27:26.610Z,97.30
2023-04-18T14:29:54.553Z,97.50
2023-04-18T14:32:21.925Z,98.30
2023-04-18T14:34:49.325Z,98.90
2023-04-18T14:37:17.780Z,99.20
2023-04-18T14:39:45.262Z,99.60
2023-04-18T14:42:12.658Z,99.90
2023-04-18T14:44:40.193Z,99.90
2023-04-18T14:47:07.582Z,99.90
2023-04-18T14:49:35.039Z,99.90
2023-04-18T14:52:02.395Z,99.90
2023-04-18T14:54:31.031Z,99.90
2023-04-18T14:56:59.921Z,99.90
2023-04-18T14:59:28.886Z,99.90
2023-04-18T15:01:56.466Z,99.90
2023-04-18T15:04:24.336Z,99.90
2023-04-18T15:06:51.822Z,99.90
2023-04-18T15:09:19.214Z,99.90
2023-04-18T15:11:46.587Z,99.90
2023-04-18T15:14:14.181Z,99.90
2023-04-18T15:16:41.732Z,99.90
2023-04-18T15:19:09.034Z,99.90
2023-04-18T15:21:36.281Z,99.90
2023-04-18T15:24:03.802Z,99.80
2023-04-18T15:26:33.113Z,99.50
2023-04-18T15:29:04.291Z,99.30
2023-04-18T15:31:32.631Z,99.20
2023-04-18T15:34:00.884Z,98.90
2023-04-18T15:36:28.927Z,98.80
2023-04-18T15:38:56.481Z,98.70
2023-04-18T15:41:24.096Z,98.70
2023-04-18T15:43:53.174Z,98.80
2023-04-18T15:46:20.988Z,98.80
2023-04-18T15:48:48.453Z,98.90
2023-04-18T15:51:15.836Z,99.00
2023-04-18T15:53:43.185Z,99.10
2023-04-18T15:56:10.505Z,99.40
2023-04-18T15:58:38.196Z,99.50
2023-04-18T16:01:07.276Z,99.80
2023-04-18T16:03:36.444Z,99.90
2023-04-18T16:06:04.729Z,99.90
2023-04-18T16:08:33.473Z,99.90
2023-04-18T16:11:01.178Z,99.90
2023-04-18T16:13:28.661Z,99.90
2023-04-18T16:15:56.860Z,99.90
2023-04-18T16:18:24.709Z,99.90
2023-04-18T16:20:52.236Z,99.90
2023-04-18T16:23:20.660Z,99.90
2023-04-18T16:25:48.210Z,99.90
2023-04-18T16:28:16.390Z,99.90
2023-04-18T16:30:45.733Z,99.90
2023-04-18T16:33:13.362Z,99.90
2023-04-18T16:35:42.269Z,99.90
2023-04-18T16:38:09.589Z,99.90
2023-04-18T16:40:38.721Z,99.90
2023-04-18T16:43:06.390Z,99.90
2023-04-18T16:45:33.937Z,99.90
2023-04-18T16:48:01.526Z,99.90
2023-04-18T16:50:29.458Z,99.90
2023-04-18T16:52:56.741Z,99.90
2023-04-18T16:55:24.398Z,99.90
2023-04-18T16:57:51.750Z,99.90
2023-04-18T17:00:19.211Z,99.90
2023-04-18T17:02:47.463Z,99.90
2023-04-18T17:05:14.934Z,99.90
2023-04-18T17:07:42.233Z,99.90
2023-04-18T17:10:10.298Z,99.90
2023-04-18T17:12:37.724Z,99.90
2023-04-18T17:15:05.460Z,99.90
2023-04-18T17:17:33.079Z,99.90
2023-04-18T17:20:01.340Z,99.90
2023-04-18T17:22:29.635Z,99.90
2023-04-18T17:24:56.882Z,99.90
2023-04-18T17:27:24.320Z,99.90
2023-04-18T17:29:51.824Z,99.90
2023-04-18T17:32:19.095Z,99.90
2023-04-18T17:34:46.456Z,99.90
2023-04-18T17:37:14.949Z,99.90
2023-04-18T17:39:42.345Z,99.90
2023-04-18T17:42:11.501Z,99.90
2023-04-18T17:44:39.859Z,99.90
2023-04-18T17:47:07.367Z,99.90
2023-04-18T17:49:35.137Z,99.90
2023-04-18T17:52:03.085Z,99.90
2023-04-18T17:54:30.472Z,99.90
2023-04-18T17:56:57.972Z,99.90
2023-04-18T17:59:25.738Z,99.90
2023-04-18T18:01:53.071Z,99.90
2023-04-18T18:04:22.960Z,99.90
2023-04-18T18:06:58.700Z,99.90
2023-04-18T18:09:26.107Z,99.90
2023-04-18T18:11:55.815Z,99.90
2023-04-18T18:14:23.749Z,99.90
2023-04-18T18:16:51.308Z,99.90
2023-04-18T18:19:18.968Z,99.90
2023-04-18T18:21:47.409Z,99.90
2023-04-18T18:24:14.874Z,99.90
2023-04-18T18:26:42.450Z,99.90
2023-04-18T18:29:09.840Z,99.90
2023-04-18T18:31:38.525Z,99.90
2023-04-18T18:34:06.099Z,99.90
2023-04-18T18:36:33.429Z,99.90
2023-04-18T18:39:01.028Z,99.90
2023-04-18T18:41:31.311Z,99.90
2023-04-18T18:43:58.708Z,99.90
2023-04-18T18:46:27.277Z,99.90
2023-04-18T18:48:54.632Z,99.90
2023-04-18T18:51:23.809Z,99.90
2023-04-18T18:53:51.275Z,99.90
2023-04-18T18:56:18.585Z,99.90
2023-04-18T18:58:45.888Z,99.90
2023-04-18T19:01:13.285Z,99.90
2023-04-18T19:03:40.773Z,99.90
2023-04-18T19:06:08.790Z,99.90
2023-04-18T19:08:36.253Z,99.90
2023-04-18T19:11:04.420Z,99.90
2023-04-18T19:13:31.927Z,99.90
2023-04-18T19:15:59.296Z,99.90
2023-04-18T19:18:26.756Z,99.90
2023-04-18T19:20:54.235Z,99.90
2023-04-18T19:23:23.802Z,99.90
2023-04-18T19:25:51.905Z,99.90
2023-04-18T19:28:19.378Z,99.90
2023-04-18T19:30:46.709Z,99.90
2023-04-18T19:33:14.321Z,99.90
2023-04-18T19:35:43.081Z,99.90
2023-04-18T19:38:10.448Z,99.90
2023-04-18T19:40:37.780Z,99.90
2023-04-18T19:43:05.085Z,99.90
2023-04-18T19:45:33.744Z,99.90
2023-04-18T19:48:02.731Z,99.90
2023-04-18T19:50:30.060Z,99.90
2023-04-18T19:52:57.376Z,99.90
2023-04-18T19:55:24.777Z,99.90
2023-04-18T19:57:56.969Z,99.90
2023-04-18T20:00:24.407Z,99.90
2023-04-18T20:02:52.477Z,99.90
2023-04-18T20:05:21.114Z,99.90
2023-04-18T20:07:48.579Z,99.90
2023-04-18T20:10:15.969Z,99.90
2023-04-18T20:12:43.192Z,99.90
2023-04-18T20:15:11.008Z,99.90
2023-04-18T20:17:38.685Z,99.90
2023-04-18T20:20:24.953Z,99.90
2023-04-18T20:22:52.841Z,99.90
2023-04-18T20:25:20.226Z,99.90
2023-04-18T20:27:48.301Z,99.90
2023-04-18T20:30:16.116Z,99.90
2023-04-18T20:32:43.535Z,99.90
2023-04-18T20:35:13.113Z,99.90
2023-04-18T20:37:41.490Z,99.90
2023-04-18T20:40:10.879Z,99.90
2023-04-18T20:42:39.040Z,99.90
2023-04-18T20:45:11.092Z,99.90
2023-04-18T20:47:41.458Z,99.90
2023-04-18T20:50:09.911Z,99.90
2023-04-18T20:52:37.191Z,99.90
2023-04-18T20:55:04.697Z,99.90
2023-04-18T20:57:32.212Z,99.90
2023-04-18T20:59:59.741Z,99.90
2023-04-18T21:02:27.235Z,99.90
2023-04-18T21:04:54.858Z,99.90
2023-04-18T21:07:22.183Z,99.90
2023-04-18T21:09:49.829Z,99.90
2023-04-18T21:12:17.476Z,99.90
2023-04-18T21:14:44.884Z,99.90
2023-04-18T21:17:17.106Z,99.90
2023-04-18T21:19:50.891Z,99.90
2023-04-18T21:22:19.485Z,99.90
2023-04-18T21:24:47.027Z,99.90
2023-04-18T21:27:15.951Z,99.90
2023-04-18T21:29:43.294Z,99.90
2023-04-18T21:32:10.703Z,99.90
2023-04-18T21:34:38.216Z,99.90
2023-04-18T21:37:05.648Z,99.90
2023-04-18T21:39:33.012Z,99.90
2023-04-18T21:42:01.897Z,99.90
2023-04-18T21:44:29.294Z,99.90
2023-04-18T21:46:57.285Z,99.90
2023-04-18T21:49:24.633Z,99.90
2023-04-18T21:51:51.947Z,99.90
2023-04-18T21:54:19.244Z,99.90
2023-04-18T21:56:46.544Z,99.90
2023-04-18T21:59:13.967Z,99.90
2023-04-18T22:01:41.258Z,99.90
2023-04-18T22:04:09.138Z,99.90
2023-04-18T22:06:36.575Z,99.90
2023-04-18T22:09:07.067Z,99.90
2023-04-18T22:11:34.211Z,99.90
2023-04-18T22:14:01.601Z,99.90
2023-04-18T22:16:29.233Z,99.90
2023-04-18T22:18:56.715Z,99.90
2023-04-18T22:21:24.195Z,99.90
2023-04-18T22:23:51.894Z,99.90
2023-04-18T22:26:19.346Z,99.90
2023-04-18T22:28:47.077Z,99.90
2023-04-18T22:31:14.395Z,99.90
2023-04-18T22:33:41.661Z,99.90
2023-04-18T22:36:08.975Z,99.90
2023-04-18T22:38:36.234Z,99.90
2023-04-18T22:41:03.464Z,99.90
2023-04-18T22:43:30.842Z,99.90
2023-04-18T22:45:58.161Z,99.90
2023-04-18T22:48:25.664Z,99.90
2023-04-18T22:50:52.814Z,99.90
2023-04-18T22:53:20.058Z,99.90
2023-04-18T22:55:47.303Z,99.90
2023-04-18T22:58:14.618Z,99.90
2023-04-18T23:00:42.152Z,99.90
2023-04-18T23:03:09.475Z,99.90
2023-04-18T23:05:36.773Z,99.90
2023-04-18T23:08:04.633Z,99.90
2023-04-18T23:10:31.877Z,99.90
2023-04-18T23:12:59.273Z,99.90
2023-04-18T23:15:27.091Z,99.90
2023-04-18T23:17:54.590Z,99.90
2023-04-18T23:20:22.272Z,99.90
2023-04-18T23:22:51.881Z,99.90
2023-04-18T23:25:19.944Z,99.90
2023-04-18T23:27:49.134Z,99.90
2023-04-18T23:30:17.424Z,99.90
2023-04-18T23:32:44.934Z,99.90
2023-04-18T23:35:12.347Z,99.90
2023-04-18T23:37:39.705Z,99.90
2023-04-18T23:40:08.005Z,99.90
2023-04-18T23:42:36.353Z,99.90
2023-04-18T23:45:04.326Z,99.90
2023-04-18T23:47:34.905Z,99.90
2023-04-18T23:50:02.519Z,99.90
2023-04-18T23:52:32.683Z,99.90
2023-04-18T23:55:03.154Z,99.90
2023-04-18T23:57:33.698Z,99.90
